Time;durP1;ratioP1;P1;durP2;ratioP2;P2;SDS_P1;SDS_P2;PMS_P1;PMS_P2;Temp;Humidity;BMP_temperature;BMP_pressure;BME280_temperature;BME280_humidity;BME280_pressure;Samples;Min_cycle;Max_cycle;Signal;HPM_P1;HPM_P2
2023/08/04 00:00:09;;;;;;;10.50;10.10;;;18.10;99.90;;;;;;5041854;28;20208;-53
2023/08/04 00:02:38;;;;;;;11.10;10.40;;;18.30;99.90;;;;;;5040175;28;20477;-55
2023/08/04 00:05:05;;;;;;;10.27;9.87;;;18.30;99.90;;;;;;5040343;28;20440;-51
2023/08/04 00:07:32;;;;;;;9.87;9.47;;;18.40;99.90;;;;;;5041951;28;21101;-54
2023/08/04 00:09:58;;;;;;;10.30;9.90;;;18.40;99.90;;;;;;5042279;28;20455;-56
2023/08/04 00:12:24;;;;;;;10.60;10.10;;;18.50;99.90;;;;;;5041483;28;20569;-51
2023/08/04 00:14:50;;;;;;;10.20;9.70;;;18.50;99.90;;;;;;5040563;28;20229;-53
2023/08/04 00:17:16;;;;;;;10.57;9.97;;;18.60;99.90;;;;;;5041681;28;20522;-51
2023/08/04 00:19:42;;;;;;;9.90;9.50;;;18.70;99.90;;;;;;5054615;28;20802;-55
2023/08/04 00:22:08;;;;;;;10.20;9.80;;;18.70;99.90;;;;;;5037920;28;20472;-50
2023/08/04 00:24:34;;;;;;;10.70;10.30;;;18.80;99.90;;;;;;5039984;28;21012;-52
2023/08/04 00:27:01;;;;;;;10.30;9.80;;;18.90;99.90;;;;;;5040392;28;20193;-53
2023/08/04 00:29:27;;;;;;;10.47;9.97;;;18.90;99.90;;;;;;5041775;28;20470;-57
2023/08/04 00:31:53;;;;;;;10.77;10.37;;;18.90;99.90;;;;;;5041551;28;20428;-53
2023/08/04 00:34:18;;;;;;;10.73;10.33;;;18.90;99.90;;;;;;5040901;28;20440;-53
2023/08/04 00:36:45;;;;;;;10.27;9.87;;;18.90;99.90;;;;;;5041305;28;20286;-55
2023/08/04 00:39:11;;;;;;;10.40;10.00;;;19.00;99.90;;;;;;5040854;28;20567;-57
2023/08/04 00:41:37;;;;;;;10.10;9.70;;;19.00;99.90;;;;;;5041203;28;20666;-56
2023/08/04 00:44:02;;;;;;;10.20;9.80;;;19.10;99.90;;;;;;5041194;28;20182;-42
2023/08/04 00:46:29;;;;;;;10.33;9.83;;;19.10;99.90;;;;;;5040907;28;20224;-41
2023/08/04 00:48:56;;;;;;;10.30;9.90;;;19.10;99.90;;;;;;5041253;28;20182;-42
2023/08/04 00:51:22;;;;;;;10.17;9.77;;;19.10;99.90;;;;;;5040318;28;20433;-40
2023/08/04 00:53:48;;;;;;;10.50;10.00;;;19.20;99.90;;;;;;5040299;28;20958;-40
2023/08/04 00:56:15;;;;;;;10.50;10.10;;;19.20;99.90;;;;;;5039597;28;20471;-39
2023/08/04 00:58:40;;;;;;;10.43;10.03;;;19.20;99.90;;;;;;5023121;28;20194;-40
2023/08/04 01:01:06;;;;;;;10.40;10.00;;;19.10;99.90;;;;;;5040288;28;20424;-54
2023/08/04 01:03:33;;;;;;;10.60;10.20;;;19.10;99.90;;;;;;5022765;28;20209;-52
2023/08/04 01:06:28;;;;;;;10.50;10.10;;;19.20;99.90;;;;;;5039211;28;20197;-53
2023/08/04 01:09:05;;;;;;;10.80;10.40;;;19.20;99.90;;;;;;5041154;28;20979;-51
2023/08/04 01:11:39;;;;;;;11.60;10.90;;;19.20;99.90;;;;;;5040495;28;20950;-55
2023/08/04 01:14:05;;;;;;;10.83;10.23;;;19.20;99.90;;;;;;5039484;28;20834;-40
2023/08/04 01:16:31;;;;;;;11.00;10.50;;;19.30;99.90;;;;;;5039685;28;20432;-41
2023/08/04 01:19:00;;;;;;;10.40;10.00;;;19.30;99.90;;;;;;5040283;28;20463;-39
2023/08/04 01:21:25;;;;;;;11.23;10.73;;;19.30;99.90;;;;;;5040584;28;20189;-41
2023/08/04 01:23:51;;;;;;;10.77;10.37;;;19.20;99.90;;;;;;5040997;28;20460;-40
2023/08/04 01:26:17;;;;;;;10.73;10.33;;;19.20;99.90;;;;;;5038425;28;20198;-41
2023/08/04 01:28:46;;;;;;;10.90;10.43;;;19.20;99.90;;;;;;5038977;28;20222;-41
2023/08/04 01:31:12;;;;;;;10.87;10.47;;;19.20;99.90;;;;;;5037675;28;20181;-40
2023/08/04 01:33:37;;;;;;;10.50;10.10;;;19.20;99.90;;;;;;5039484;28;20482;-41
2023/08/04 01:36:03;;;;;;;10.60;10.20;;;19.10;99.90;;;;;;5021282;28;20436;-41
2023/08/04 01:38:29;;;;;;;10.07;9.67;;;19.10;99.90;;;;;;5040428;28;20189;-40
2023/08/04 01:40:55;;;;;;;10.50;10.10;;;19.10;99.90;;;;;;5040493;28;20910;-42
2023/08/04 01:43:20;;;;;;;10.30;9.90;;;19.10;99.90;;;;;;5040688;28;20271;-40
2023/08/04 01:45:46;;;;;;;10.43;10.03;;;19.10;99.90;;;;;;5038706;28;20553;-41
2023/08/04 01:48:12;;;;;;;10.57;10.17;;;19.00;99.90;;;;;;5039909;28;20197;-40
2023/08/04 01:50:37;;;;;;;10.80;10.30;;;19.00;99.90;;;;;;5040264;28;20189;-40
2023/08/04 01:53:03;;;;;;;10.07;9.67;;;19.00;99.90;;;;;;5039737;28;20190;-43
2023/08/04 01:55:28;;;;;;;10.60;10.00;;;19.00;99.90;;;;;;5039339;28;20181;-43
2023/08/04 01:57:54;;;;;;;10.73;10.23;;;19.00;99.90;;;;;;5038397;28;20268;-41
2023/08/04 02:00:19;;;;;;;9.90;9.50;;;19.00;99.90;;;;;;5039880;28;20269;-43
2023/08/04 02:02:45;;;;;;;10.80;10.30;;;19.00;99.90;;;;;;5040190;28;20209;-45
2023/08/04 02:05:11;;;;;;;11.10;10.63;;;18.90;99.90;;;;;;5040100;28;20182;-40
2023/08/04 02:07:36;;;;;;;10.80;10.40;;;18.90;99.90;;;;;;5039389;28;20641;-41
2023/08/04 02:10:03;;;;;;;10.37;9.87;;;18.80;99.90;;;;;;5039627;28;20228;-45
2023/08/04 02:12:28;;;;;;;10.80;10.40;;;18.80;99.90;;;;;;5039269;28;20190;-41
2023/08/04 02:14:54;;;;;;;10.43;9.93;;;18.80;99.90;;;;;;5039949;28;21047;-44
2023/08/04 02:17:20;;;;;;;10.73;10.20;;;18.80;99.90;;;;;;5040201;28;20284;-41
2023/08/04 02:19:45;;;;;;;10.17;9.77;;;18.80;99.90;;;;;;5038912;28;21299;-43
2023/08/04 02:22:11;;;;;;;10.57;10.07;;;18.90;99.90;;;;;;5039547;28;20247;-43
2023/08/04 02:24:36;;;;;;;10.30;9.90;;;18.80;99.90;;;;;;5038960;28;20316;-42
2023/08/04 02:27:02;;;;;;;11.13;10.63;;;18.90;99.90;;;;;;5040990;28;20190;-42
2023/08/04 02:29:28;;;;;;;10.33;9.90;;;18.90;99.90;;;;;;5043556;28;20182;-40
2023/08/04 02:31:53;;;;;;;10.27;9.77;;;18.90;99.90;;;;;;5044052;28;20657;-40
2023/08/04 02:34:19;;;;;;;10.33;9.93;;;18.90;99.90;;;;;;5043078;28;20204;-41
2023/08/04 02:36:45;;;;;;;9.90;9.50;;;19.00;99.90;;;;;;5043302;28;20192;-40
2023/08/04 02:39:10;;;;;;;10.17;9.67;;;19.00;99.90;;;;;;5042070;28;20598;-42
2023/08/04 02:41:36;;;;;;;9.70;9.30;;;18.90;99.90;;;;;;5043338;28;20247;-44
2023/08/04 02:44:03;;;;;;;10.30;9.73;;;18.90;99.90;;;;;;5043329;28;20213;-40
2023/08/04 02:46:29;;;;;;;10.83;10.33;;;18.80;99.90;;;;;;5024255;28;20193;-42
2023/08/04 02:48:55;;;;;;;10.30;9.90;;;18.80;99.90;;;;;;5042245;28;20428;-40
2023/08/04 02:51:21;;;;;;;10.47;10.07;;;18.80;99.90;;;;;;5043047;28;20186;-44
2023/08/04 02:53:48;;;;;;;10.97;10.33;;;18.80;99.90;;;;;;5043601;28;20522;-41
2023/08/04 02:56:15;;;;;;;10.60;10.10;;;18.70;99.90;;;;;;5041928;28;20190;-40
2023/08/04 02:58:47;;;;;;;10.50;10.10;;;18.70;99.90;;;;;;5042015;28;20435;-41
2023/08/04 03:01:13;;;;;;;10.57;10.07;;;18.60;99.90;;;;;;5042995;28;20412;-41
2023/08/04 03:03:39;;;;;;;10.00;9.40;;;18.50;99.90;;;;;;5043054;28;20547;-41
2023/08/04 03:06:05;;;;;;;10.23;9.83;;;18.50;99.90;;;;;;5043220;28;20416;-44
2023/08/04 03:08:31;;;;;;;10.10;9.60;;;18.50;99.90;;;;;;5041512;28;21261;-44
2023/08/04 03:10:57;;;;;;;10.50;10.00;;;18.50;99.90;;;;;;5043062;28;20419;-41
2023/08/04 03:13:23;;;;;;;10.37;9.97;;;18.50;99.90;;;;;;5043051;28;20427;-42
2023/08/04 03:15:59;;;;;;;11.23;10.60;;;18.50;99.90;;;;;;5042337;28;20440;-44
2023/08/04 03:18:26;;;;;;;11.50;11.00;;;18.60;99.90;;;;;;5042185;28;20182;-41
2023/08/04 03:20:52;;;;;;;11.40;10.90;;;18.50;99.90;;;;;;5042488;28;20495;-41
2023/08/04 03:23:18;;;;;;;10.13;9.73;;;18.40;99.90;;;;;;5042742;28;20451;-43
2023/08/04 03:25:44;;;;;;;10.10;9.70;;;18.30;99.90;;;;;;5024397;28;20529;-42
2023/08/04 03:28:09;;;;;;;10.90;10.40;;;18.20;99.90;;;;;;5041219;28;20468;-41
2023/08/04 03:30:35;;;;;;;11.07;10.57;;;18.10;99.90;;;;;;5042623;28;20553;-41
2023/08/04 03:33:01;;;;;;;11.33;10.83;;;18.00;99.90;;;;;;5042717;28;20553;-43
2023/08/04 03:35:26;;;;;;;11.27;10.67;;;17.90;99.90;;;;;;5040534;28;20232;-39
2023/08/04 03:37:52;;;;;;;11.20;10.70;;;17.90;99.90;;;;;;5041485;28;20186;-42
2023/08/04 03:40:17;;;;;;;9.60;9.20;;;17.80;99.90;;;;;;5042077;28;20193;-41
2023/08/04 03:42:43;;;;;;;10.53;10.13;;;17.70;99.90;;;;;;5039986;28;20244;-40
2023/08/04 03:45:09;;;;;;;10.70;10.20;;;17.70;99.90;;;;;;5041256;28;20189;-42
2023/08/04 03:47:35;;;;;;;11.20;10.50;;;17.60;99.90;;;;;;5041268;28;20199;-40
2023/08/04 03:50:05;;;;;;;10.87;10.27;;;17.60;99.90;;;;;;5041924;28;20444;-40
2023/08/04 03:52:30;;;;;;;11.40;10.90;;;17.50;99.90;;;;;;5042109;28;20251;-40
2023/08/04 03:54:56;;;;;;;10.27;9.83;;;17.50;99.90;;;;;;5041483;28;20899;-41
2023/08/04 03:57:22;;;;;;;10.50;10.00;;;17.40;99.90;;;;;;5042127;28;20439;-40
2023/08/04 03:59:48;;;;;;;10.63;10.13;;;17.50;99.90;;;;;;5042076;28;20188;-40
2023/08/04 04:02:14;;;;;;;10.80;10.30;;;17.50;99.90;;;;;;5040987;28;20214;-39
2023/08/04 04:04:39;;;;;;;9.70;9.13;;;17.60;99.90;;;;;;5041122;28;21003;-40
2023/08/04 04:07:05;;;;;;;10.73;10.30;;;17.60;99.90;;;;;;5041668;28;20830;-40
2023/08/04 04:09:31;;;;;;;10.00;9.60;;;17.70;99.90;;;;;;5039982;28;20216;-42
2023/08/04 04:11:57;;;;;;;10.80;10.23;;;17.70;99.90;;;;;;5039862;28;20502;-40
2023/08/04 04:14:22;;;;;;;11.30;10.70;;;17.70;99.90;;;;;;5041191;28;20197;-41
2023/08/04 04:16:48;;;;;;;10.87;10.27;;;17.80;99.90;;;;;;5039284;28;20228;-40
2023/08/04 04:19:13;;;;;;;9.67;9.27;;;17.90;99.90;;;;;;5039789;28;20225;-44
2023/08/04 04:21:39;;;;;;;9.60;9.20;;;18.00;99.90;;;;;;5041439;28;20193;-41
2023/08/04 04:24:05;;;;;;;9.90;9.50;;;18.00;99.90;;;;;;5040409;28;20688;-42
2023/08/04 04:26:30;;;;;;;9.80;9.40;;;18.00;99.90;;;;;;5041605;28;20268;-40
2023/08/04 04:28:56;;;;;;;10.50;10.00;;;18.10;99.90;;;;;;5040809;28;20204;-43
2023/08/04 04:31:21;;;;;;;11.33;10.80;;;18.10;99.90;;;;;;5039969;28;20217;-41
2023/08/04 04:33:47;;;;;;;9.83;9.33;;;18.20;99.90;;;;;;5041062;28;20189;-41
2023/08/04 04:36:13;;;;;;;10.57;10.07;;;18.30;99.90;;;;;;5040931;28;20204;-42
2023/08/04 04:38:38;;;;;;;10.90;10.40;;;18.30;99.90;;;;;;5038651;28;20186;-50
2023/08/04 04:41:04;;;;;;;10.20;9.60;;;18.40;99.90;;;;;;5039908;28;20194;-53
2023/08/04 04:43:30;;;;;;;10.17;9.67;;;18.40;99.90;;;;;;5041296;28;20312;-53
2023/08/04 04:45:56;;;;;;;10.87;10.33;;;18.50;99.90;;;;;;5040997;28;20584;-54
2023/08/04 04:48:23;;;;;;;10.67;10.17;;;18.50;99.90;;;;;;5040423;28;20447;-54
2023/08/04 04:50:52;;;;;;;10.07;9.63;;;18.60;99.90;;;;;;5041155;28;20830;-52
2023/08/04 04:53:18;;;;;;;9.60;9.20;;;18.60;99.90;;;;;;5041087;28;20424;-53
2023/08/04 04:55:44;;;;;;;11.27;10.57;;;18.60;99.90;;;;;;5040626;28;20502;-45
2023/08/04 04:58:12;;;;;;;11.33;10.83;;;18.70;99.90;;;;;;5040633;28;20430;-50
2023/08/04 05:00:37;;;;;;;9.87;9.43;;;18.70;99.90;;;;;;5040406;28;20190;-53
2023/08/04 05:03:08;;;;;;;11.07;10.33;;;18.70;99.90;;;;;;5040018;28;20490;-54
2023/08/04 05:05:35;;;;;;;11.20;10.70;;;18.70;99.90;;;;;;5040460;28;20182;-50
2023/08/04 05:08:01;;;;;;;9.50;9.00;;;18.80;99.90;;;;;;5040737;28;20885;-52
2023/08/04 05:10:26;;;;;;;11.20;10.70;;;18.80;99.90;;;;;;5040679;28;20437;-54
2023/08/04 05:12:52;;;;;;;10.63;10.13;;;18.90;99.90;;;;;;5040277;28;20189;-53
2023/08/04 05:15:18;;;;;;;10.80;10.30;;;18.90;99.90;;;;;;5039969;28;20553;-54
2023/08/04 05:17:44;;;;;;;11.00;10.50;;;19.00;99.90;;;;;;5022287;28;20672;-54
2023/08/04 05:20:11;;;;;;;11.00;10.50;;;19.00;99.90;;;;;;5040520;28;20556;-52
2023/08/04 05:22:37;;;;;;;10.83;10.30;;;19.00;99.90;;;;;;5022550;28;20476;-52
2023/08/04 05:25:04;;;;;;;11.37;10.87;;;19.00;99.90;;;;;;5040494;28;20806;-52
2023/08/04 05:27:30;;;;;;;11.17;10.67;;;19.00;99.90;;;;;;5039955;28;20177;-53
2023/08/04 05:29:56;;;;;;;10.73;10.23;;;19.00;99.90;;;;;;5040299;28;20419;-54
2023/08/04 05:32:21;;;;;;;11.30;10.80;;;19.00;99.90;;;;;;5040043;28;20277;-53
2023/08/04 05:34:47;;;;;;;10.90;10.40;;;19.10;99.90;;;;;;5039992;28;20186;-53
2023/08/04 05:37:12;;;;;;;11.20;10.70;;;19.00;99.90;;;;;;5040381;28;20201;-56
2023/08/04 05:39:38;;;;;;;11.17;10.57;;;19.10;99.90;;;;;;5040418;28;20743;-53
2023/08/04 05:42:04;;;;;;;10.97;10.47;;;19.20;99.90;;;;;;5022436;28;20278;-53
2023/08/04 05:44:29;;;;;;;11.10;10.60;;;19.20;99.90;;;;;;5039347;28;20269;-54
2023/08/04 05:46:55;;;;;;;11.50;11.00;;;19.20;99.90;;;;;;5040592;28;20337;-54
2023/08/04 05:49:21;;;;;;;11.20;10.70;;;19.30;99.90;;;;;;5040147;28;20285;-54
2023/08/04 05:51:47;;;;;;;10.90;10.00;;;19.30;99.90;;;;;;5040540;28;20774;-51
2023/08/04 05:54:12;;;;;;;10.90;10.40;;;19.30;99.90;;;;;;5040367;28;20296;-52
2023/08/04 05:56:38;;;;;;;11.10;10.23;;;19.20;99.90;;;;;;5040352;28;20189;-54
2023/08/04 05:59:03;;;;;;;10.70;10.20;;;19.20;99.90;;;;;;5040143;28;20228;-52
2023/08/04 06:01:29;;;;;;;10.30;9.73;;;19.30;99.90;;;;;;5041168;28;20253;-55
2023/08/04 06:03:55;;;;;;;10.20;9.77;;;19.30;99.90;;;;;;5044252;28;20209;-52
2023/08/04 06:06:21;;;;;;;11.20;10.70;;;19.40;99.90;;;;;;5044012;28;20177;-55
2023/08/04 06:08:46;;;;;;;10.30;9.80;;;19.40;99.90;;;;;;5044186;28;20177;-56
2023/08/04 06:11:13;;;;;;;10.90;10.40;;;19.30;99.90;;;;;;5044124;28;20420;-57
2023/08/04 06:13:39;;;;;;;10.33;9.93;;;19.40;99.90;;;;;;5043002;28;20189;-52
2023/08/04 06:16:05;;;;;;;10.13;9.60;;;19.50;99.90;;;;;;5043752;28;20886;-54
2023/08/04 06:18:31;;;;;;;10.20;9.80;;;19.50;99.90;;;;;;5022382;28;20439;-54
2023/08/04 06:20:57;;;;;;;10.70;10.20;;;19.50;99.90;;;;;;5044453;28;20194;-54
2023/08/04 06:23:22;;;;;;;10.70;10.30;;;19.60;99.90;;;;;;5043575;28;20217;-50
2023/08/04 06:25:48;;;;;;;11.00;10.40;;;19.70;99.90;;;;;;5043479;28;20482;-51
2023/08/04 06:28:13;;;;;;;10.90;10.40;;;19.60;99.90;;;;;;5043592;28;20181;-55
2023/08/04 06:30:39;;;;;;;11.10;10.60;;;19.60;99.90;;;;;;5043532;28;20232;-53
2023/08/04 06:33:05;;;;;;;10.03;9.63;;;19.50;99.90;;;;;;5043705;28;20692;-56
2023/08/04 06:35:30;;;;;;;10.20;9.70;;;19.50;99.90;;;;;;5043636;28;20190;-53
2023/08/04 06:37:56;;;;;;;9.67;9.20;;;19.50;99.90;;;;;;5043358;28;20194;-53
2023/08/04 06:40:22;;;;;;;10.70;10.20;;;19.50;99.90;;;;;;5043648;28;20913;-55
2023/08/04 06:42:48;;;;;;;11.40;10.80;;;19.60;99.90;;;;;;5043193;28;20471;-56
2023/08/04 06:45:15;;;;;;;11.17;10.67;;;19.70;99.90;;;;;;5042656;28;20284;-53
2023/08/04 06:47:40;;;;;;;10.70;10.20;;;19.90;99.90;;;;;;5043414;28;20243;-55
2023/08/04 06:50:07;;;;;;;11.30;10.80;;;20.00;99.90;;;;;;5043284;28;20660;-49
2023/08/04 06:52:33;;;;;;;11.07;10.63;;;20.00;99.90;;;;;;5043607;28;20189;-53
2023/08/04 06:54:59;;;;;;;11.20;10.70;;;20.00;99.90;;;;;;5042881;28;20473;-55
2023/08/04 06:57:25;;;;;;;10.90;10.40;;;20.10;99.90;;;;;;5043314;28;20473;-51
2023/08/04 06:59:51;;;;;;;11.07;10.47;;;20.10;99.90;;;;;;5043214;28;20474;-54
2023/08/04 07:02:17;;;;;;;10.90;10.40;;;20.10;99.90;;;;;;5042814;28;20252;-49
2023/08/04 07:04:42;;;;;;;11.07;10.60;;;20.20;99.90;;;;;;5043341;28;20203;-48
2023/08/04 07:07:08;;;;;;;10.93;10.43;;;20.30;99.90;;;;;;5042862;28;20419;-54
2023/08/04 07:09:34;;;;;;;10.93;10.33;;;20.40;99.90;;;;;;5043365;28;20186;-53
2023/08/04 07:11:59;;;;;;;11.10;10.60;;;20.50;99.90;;;;;;5042763;28;20196;-53
2023/08/04 07:14:25;;;;;;;10.80;10.23;;;20.60;99.90;;;;;;5041417;28;20243;-56
2023/08/04 07:16:51;;;;;;;10.80;10.10;;;20.60;99.90;;;;;;5042004;28;20271;-46
2023/08/04 07:19:16;;;;;;;10.90;10.50;;;20.70;99.90;;;;;;5042653;28;20190;-49
2023/08/04 07:21:43;;;;;;;11.60;11.10;;;20.70;99.90;;;;;;5042963;28;20182;-53
2023/08/04 07:24:09;;;;;;;10.97;10.50;;;20.80;99.90;;;;;;5042327;28;20233;-54
2023/08/04 07:26:35;;;;;;;11.70;11.20;;;20.80;99.90;;;;;;5042889;28;20509;-52
2023/08/04 07:29:01;;;;;;;11.67;11.17;;;20.80;99.90;;;;;;5042602;28;20530;-56
2023/08/04 07:31:27;;;;;;;11.13;10.70;;;20.90;99.90;;;;;;5042418;28;20589;-53
2023/08/04 07:33:53;;;;;;;11.80;11.20;;;20.90;99.90;;;;;;5042549;28;20586;-50
2023/08/04 07:36:18;;;;;;;10.97;10.40;;;20.80;99.90;;;;;;5042549;28;20200;-53
2023/08/04 07:38:44;;;;;;;11.23;10.73;;;20.80;99.90;;;;;;5042075;28;20265;-55
2023/08/04 07:41:18;;;;;;;11.33;10.83;;;20.80;99.90;;;;;;5042748;28;20182;-51
2023/08/04 07:43:43;;;;;;;11.97;11.47;;;20.80;99.90;;;;;;5042378;28;20212;-54
2023/08/04 07:46:38;;;;;;;12.30;11.60;;;20.80;99.90;;;;;;5042216;28;20781;-53
2023/08/04 07:49:04;;;;;;;10.97;10.47;;;20.70;99.90;;;;;;5039045;28;20198;-53
2023/08/04 07:51:29;;;;;;;10.93;10.30;;;20.70;99.90;;;;;;5042290;28;20416;-49
2023/08/04 07:53:55;;;;;;;10.90;10.50;;;20.80;99.90;;;;;;5040038;28;20212;-55
2023/08/04 07:56:20;;;;;;;10.70;10.20;;;20.90;99.90;;;;;;5040433;28;20228;-51
2023/08/04 07:58:47;;;;;;;10.50;10.10;;;20.90;99.90;;;;;;5039909;28;20275;-52
2023/08/04 08:01:13;;;;;;;10.90;10.40;;;21.00;99.90;;;;;;5041870;28;20847;-54
2023/08/04 08:03:39;;;;;;;11.23;10.73;;;21.00;99.90;;;;;;5041887;28;20209;-52
2023/08/04 08:06:05;;;;;;;11.10;10.60;;;20.90;99.90;;;;;;5042036;28;20265;-51
2023/08/04 08:08:31;;;;;;;11.10;10.60;;;21.00;99.90;;;;;;5041460;28;20482;-51
2023/08/04 08:10:56;;;;;;;11.47;10.87;;;20.90;99.90;;;;;;5041843;28;20243;-54
2023/08/04 08:13:23;;;;;;;11.27;10.77;;;20.90;99.90;;;;;;5041942;28;20420;-53
2023/08/04 08:15:49;;;;;;;10.13;9.73;;;20.90;99.90;;;;;;5041285;28;20532;-55
2023/08/04 08:18:14;;;;;;;10.97;10.50;;;20.90;99.90;;;;;;5041903;28;20431;-55
2023/08/04 08:20:44;;;;;;;11.00;10.50;;;20.70;99.90;;;;;;5041372;28;20930;-53
2023/08/04 08:23:09;;;;;;;11.07;10.57;;;20.80;99.90;;;;;;5040942;28;20249;-52
2023/08/04 08:25:35;;;;;;;10.83;10.33;;;20.90;99.90;;;;;;5040443;28;20570;-50
2023/08/04 08:28:04;;;;;;;10.77;10.27;;;21.20;99.90;;;;;;5040563;28;20527;-51
2023/08/04 08:30:30;;;;;;;11.30;10.80;;;21.40;99.90;;;;;;5041051;28;20193;-54
2023/08/04 08:32:56;;;;;;;10.63;10.17;;;21.60;99.90;;;;;;5041667;28;20431;-50
2023/08/04 08:35:22;;;;;;;10.53;10.03;;;21.90;99.90;;;;;;5023599;28;20432;-50
2023/08/04 08:37:47;;;;;;;10.50;10.10;;;22.00;99.90;;;;;;5041468;28;20194;-54
2023/08/04 08:40:13;;;;;;;11.40;10.90;;;22.10;99.90;;;;;;5041458;28;20200;-53
2023/08/04 08:42:39;;;;;;;12.00;11.40;;;22.20;99.90;;;;;;5041133;28;20704;-55
2023/08/04 08:45:05;;;;;;;10.27;9.80;;;22.50;99.90;;;;;;5041114;28;20243;-52
2023/08/04 08:47:35;;;;;;;11.80;11.30;;;22.80;99.90;;;;;;5040935;28;21339;-55
2023/08/04 08:50:02;;;;;;;11.60;11.10;;;23.00;99.90;;;;;;5041238;28;20442;-48
2023/08/04 08:52:33;;;;;;;11.50;11.00;;;23.00;99.90;;;;;;5040358;28;20462;-53
2023/08/04 08:54:59;;;;;;;11.93;11.13;;;22.90;99.90;;;;;;5040330;28;20586;-54
2023/08/04 08:57:27;;;;;;;11.50;11.00;;;23.10;99.90;;;;;;5041079;28;20591;-54
2023/08/04 08:59:56;;;;;;;11.10;10.60;;;23.10;99.90;;;;;;5041247;28;20424;-53
2023/08/04 09:02:23;;;;;;;10.87;10.37;;;23.20;99.80;;;;;;5023396;28;20483;-52
2023/08/04 09:04:48;;;;;;;11.87;11.37;;;23.30;99.70;;;;;;5040727;28;20424;-53
2023/08/04 09:07:14;;;;;;;11.77;11.27;;;23.50;99.10;;;;;;5040723;28;21527;-54
2023/08/04 09:09:40;;;;;;;11.20;10.70;;;23.80;99.50;;;;;;5041005;28;20186;-42
2023/08/04 09:12:06;;;;;;;11.20;10.70;;;24.00;98.10;;;;;;5040745;28;20228;-42
2023/08/04 09:14:52;;;;;;;11.73;11.13;;;24.10;97.50;;;;;;5040628;28;20182;-42
2023/08/04 09:17:30;;;;;;;10.67;10.07;;;24.20;97.10;;;;;;5040409;28;20489;-40
2023/08/04 09:19:56;;;;;;;11.20;10.70;;;24.20;96.70;;;;;;5040576;28;20452;-42
2023/08/04 09:22:23;;;;;;;11.93;11.43;;;24.20;96.30;;;;;;5039778;28;20547;-44
2023/08/04 09:24:57;;;;;;;10.07;9.67;;;24.10;96.70;;;;;;5040395;28;20479;-42
2023/08/04 09:27:28;;;;;;;11.23;10.73;;;24.10;97.20;;;;;;5040700;28;21023;-44
2023/08/04 09:29:58;;;;;;;10.23;9.83;;;24.20;96.60;;;;;;5040299;28;20431;-41
2023/08/04 09:32:24;;;;;;;10.87;10.40;;;24.20;95.70;;;;;;5039928;28;20435;-44
2023/08/04 09:35:06;;;;;;;11.00;10.50;;;24.30;94.50;;;;;;5040162;28;20420;-42
2023/08/04 09:37:33;;;;;;;10.90;10.30;;;24.50;94.90;;;;;;5039803;28;20181;-43
2023/08/04 09:40:04;;;;;;;10.70;10.30;;;24.80;93.80;;;;;;5040251;28;20424;-41
2023/08/04 09:42:31;;;;;;;11.20;10.70;;;25.40;93.20;;;;;;5040155;28;20455;-48
2023/08/04 09:44:57;;;;;;;11.00;10.50;;;26.00;91.50;;;;;;5040174;28;20416;-44
2023/08/04 09:47:27;;;;;;;11.30;10.80;;;26.40;90.60;;;;;;5040471;28;20430;-44
2023/08/04 09:49:54;;;;;;;11.07;10.57;;;26.40;89.40;;;;;;5040444;28;20410;-44
2023/08/04 09:52:24;;;;;;;11.00;10.43;;;26.30;88.30;;;;;;5039810;28;20432;-48
2023/08/04 09:54:53;;;;;;;10.93;10.33;;;26.30;86.30;;;;;;5022234;28;20428;-42
2023/08/04 09:57:19;;;;;;;11.10;10.60;;;26.20;87.60;;;;;;5039799;28;20428;-42
2023/08/04 09:59:46;;;;;;;10.30;9.90;;;26.00;85.90;;;;;;5040284;28;20498;-42
2023/08/04 10:02:13;;;;;;;11.30;10.80;;;25.60;87.60;;;;;;5040019;28;20459;-42
2023/08/04 10:04:39;;;;;;;11.07;10.50;;;25.40;88.80;;;;;;5039175;28;20440;-42
2023/08/04 10:07:07;;;;;;;11.23;10.73;;;25.00;89.50;;;;;;5039896;28;20424;-42
2023/08/04 10:09:34;;;;;;;12.20;11.60;;;24.50;93.70;;;;;;5040294;28;20425;-42
2023/08/04 10:12:01;;;;;;;12.00;11.50;;;24.10;97.40;;;;;;5040262;28;20412;-45
2023/08/04 10:14:27;;;;;;;13.03;12.43;;;23.40;99.70;;;;;;5039734;28;21238;-43
2023/08/04 10:16:54;;;;;;;14.53;13.83;;;23.20;99.90;;;;;;5039989;28;20471;-42
2023/08/04 10:19:23;;;;;;;14.17;13.47;;;22.70;99.90;;;;;;5039930;28;20184;-40
2023/08/04 10:21:49;;;;;;;14.47;13.77;;;22.40;99.90;;;;;;5039957;28;20416;-40
2023/08/04 10:24:20;;;;;;;13.70;12.90;;;22.20;99.90;;;;;;5039702;28;20468;-42
2023/08/04 10:26:51;;;;;;;13.43;12.83;;;22.40;99.90;;;;;;5021750;28;20526;-44
2023/08/04 10:29:17;;;;;;;13.43;12.83;;;22.60;99.90;;;;;;5039776;28;20460;-41
2023/08/04 10:31:54;;;;;;;12.50;11.90;;;22.80;99.90;;;;;;5039790;28;21301;-40
2023/08/04 10:34:35;;;;;;;13.67;12.97;;;23.00;99.90;;;;;;5038447;28;20468;-53
2023/08/04 10:37:15;;;;;;;12.90;12.30;;;23.10;99.90;;;;;;5039797;28;21095;-51
2023/08/04 10:39:44;;;;;;;13.00;12.30;;;23.10;99.90;;;;;;5021803;28;20435;-45
2023/08/04 10:42:27;;;;;;;12.00;11.50;;;22.60;99.90;;;;;;5039323;28;20528;-51
2023/08/04 10:45:03;;;;;;;17.73;16.50;;;22.20;99.90;;;;;;5039973;28;20412;-50
2023/08/04 10:47:45;;;;;;;16.93;15.93;;;21.50;99.90;;;;;;5040730;28;20930;-48
2023/08/04 10:50:11;;;;;;;18.77;17.13;;;21.00;99.90;;;;;;5043426;28;20961;-42
2023/08/04 10:52:38;;;;;;;17.07;16.20;;;20.50;99.90;;;;;;5043034;28;20609;-45
2023/08/04 10:55:06;;;;;;;16.50;15.50;;;20.10;99.90;;;;;;5025440;28;20489;-45
2023/08/04 10:57:33;;;;;;;17.73;16.73;;;20.00;99.90;;;;;;5042839;28;20452;-48
2023/08/04 11:00:00;;;;;;;18.03;17.00;;;20.00;99.90;;;;;;5043718;28;20416;-46
2023/08/04 11:02:27;;;;;;;17.00;16.10;;;20.10;99.90;;;;;;5042923;28;20459;-50
2023/08/04 11:04:53;;;;;;;16.97;15.97;;;20.40;99.90;;;;;;5043097;28;20454;-48
2023/08/04 11:07:20;;;;;;;16.60;15.60;;;20.60;99.90;;;;;;5043015;28;20420;-47
2023/08/04 11:09:47;;;;;;;16.93;16.03;;;20.70;99.90;;;;;;5043022;28;20621;-49
2023/08/04 11:12:14;;;;;;;15.93;15.13;;;20.90;99.90;;;;;;5042878;28;20435;-50
2023/08/04 11:14:39;;;;;;;17.27;16.17;;;21.10;99.90;;;;;;5042906;28;20424;-51
2023/08/04 11:17:15;;;;;;;15.93;15.13;;;21.30;99.90;;;;;;5042750;28;20428;-48
2023/08/04 11:19:45;;;;;;;16.40;15.50;;;21.60;99.90;;;;;;5042903;28;20667;-50
2023/08/04 11:22:23;;;;;;;14.27;13.57;;;21.90;99.90;;;;;;5042693;28;20464;-53
2023/08/04 11:24:50;;;;;;;13.83;13.23;;;22.30;99.90;;;;;;5042315;28;20939;-50
2023/08/04 11:27:17;;;;;;;12.90;12.30;;;22.50;99.90;;;;;;5042164;28;20454;-49
2023/08/04 11:29:43;;;;;;;11.50;11.00;;;23.00;99.90;;;;;;5042417;28;20417;-54
2023/08/04 11:32:24;;;;;;;12.60;11.90;;;23.60;99.90;;;;;;5042943;28;20657;-51
2023/08/04 11:34:50;;;;;;;12.73;12.20;;;24.10;99.90;;;;;;5042070;28;20420;-52
2023/08/04 11:37:16;;;;;;;11.90;11.40;;;24.60;99.90;;;;;;5042325;28;20432;-53
2023/08/04 11:39:42;;;;;;;12.10;11.60;;;24.90;99.90;;;;;;5042424;28;20665;-52
2023/08/04 11:42:12;;;;;;;12.07;11.57;;;25.40;99.90;;;;;;5040562;28;21041;-52
2023/08/04 11:44:42;;;;;;;11.63;11.10;;;25.60;99.90;;;;;;5041106;28;20441;-54
2023/08/04 11:47:12;;;;;;;11.30;10.80;;;26.20;99.90;;;;;;5042252;28;20416;-51
2023/08/04 11:49:39;;;;;;;11.63;11.13;;;27.40;99.50;;;;;;5040516;28;20534;-52
2023/08/04 11:52:13;;;;;;;11.83;11.33;;;28.30;95.60;;;;;;5042265;28;20423;-53
2023/08/04 11:54:58;;;;;;;11.93;11.43;;;28.70;91.70;;;;;;5042125;28;20427;-49
2023/08/04 11:57:25;;;;;;;11.50;11.10;;;28.30;75.00;;;;;;5039991;28;20800;-53
2023/08/04 11:59:52;;;;;;;11.90;11.40;;;28.20;85.10;;;;;;5041333;28;20511;-52
2023/08/04 12:02:18;;;;;;;11.63;11.13;;;28.00;77.80;;;;;;5040756;28;20475;-43
2023/08/04 12:04:44;;;;;;;11.60;11.10;;;27.60;83.20;;;;;;5042028;28;20810;-42
2023/08/04 12:07:10;;;;;;;12.23;11.63;;;27.30;90.80;;;;;;5041463;28;20436;-41
2023/08/04 12:09:36;;;;;;;11.90;11.40;;;27.10;91.30;;;;;;5041755;28;20220;-49
2023/08/04 12:12:03;;;;;;;11.67;11.17;;;27.00;83.80;;;;;;5041833;28;20416;-46
2023/08/04 12:14:29;;;;;;;11.90;11.40;;;26.90;86.20;;;;;;5041053;28;20216;-42
2023/08/04 12:17:03;;;;;;;11.80;11.30;;;26.60;86.40;;;;;;5041856;28;20409;-44
2023/08/04 12:19:30;;;;;;;11.50;11.00;;;26.30;85.50;;;;;;5041834;28;21352;-43
2023/08/04 12:21:58;;;;;;;11.47;11.07;;;26.00;95.00;;;;;;5041564;28;20746;-43
2023/08/04 12:24:25;;;;;;;11.87;11.37;;;26.00;98.50;;;;;;5041589;28;20464;-46
2023/08/04 12:26:51;;;;;;;11.70;11.20;;;26.10;96.80;;;;;;5041184;28;20478;-45
2023/08/04 12:29:16;;;;;;;10.90;10.50;;;26.00;94.90;;;;;;5041176;28;20435;-41